createdAt,value
2023-03-06T00:00:22.608Z,7.82
2023-03-06T00:02:49.906Z,7.22
2023-03-06T00:05:17.280Z,6.60
2023-03-06T00:07:44.584Z,6.45
2023-03-06T00:10:23.290Z,5.47
2023-03-06T00:13:01.806Z,7.10
2023-03-06T00:15:29.213Z,6.78
2023-03-06T00:17:56.653Z,7.00
2023-03-06T00:20:24.186Z,7.82
2023-03-06T00:22:51.449Z,6.50
2023-03-06T00:25:20.355Z,8.20
2023-03-06T00:27:47.673Z,7.05
2023-03-06T00:30:17.100Z,7.25
2023-03-06T00:32:44.431Z,9.10
2023-03-06T00:35:13.040Z,7.20
2023-03-06T00:37:40.409Z,5.68
2023-03-06T00:40:09.764Z,7.10
2023-03-06T00:42:37.233Z,6.35
2023-03-06T00:45:05.398Z,5.20
2023-03-06T00:47:32.626Z,7.83
2023-03-06T00:49:59.906Z,6.63
2023-03-06T00:52:27.194Z,7.70
2023-03-06T00:54:54.556Z,6.15
2023-03-06T00:57:21.880Z,8.63
2023-03-06T00:59:49.157Z,7.87
2023-03-06T01:02:16.527Z,6.25
2023-03-06T01:04:43.840Z,6.88
2023-03-06T01:07:11.823Z,7.22
2023-03-06T01:09:39.074Z,8.07
2023-03-06T01:12:06.629Z,10.60
2023-03-06T01:14:35.115Z,9.27
2023-03-06T01:17:02.513Z,6.90
2023-03-06T01:19:29.827Z,7.40
2023-03-06T01:21:58.340Z,10.30
2023-03-06T01:24:25.975Z,8.03
2023-03-06T01:26:56.954Z,9.93
2023-03-06T01:29:26.389Z,6.32
2023-03-06T01:31:56.049Z,9.52
2023-03-06T01:34:23.437Z,9.50
2023-03-06T01:36:50.737Z,8.33
2023-03-06T01:39:19.219Z,8.13
2023-03-06T01:41:46.966Z,8.52
2023-03-06T01:44:14.224Z,8.02
2023-03-06T01:46:42.812Z,8.52
2023-03-06T01:49:26.689Z,8.35
2023-03-06T01:52:11.073Z,8.95
2023-03-06T01:54:44.748Z,7.55
2023-03-06T01:57:14.274Z,10.02
2023-03-06T01:59:42.193Z,7.95
2023-03-06T02:02:10.596Z,9.93
2023-03-06T02:04:39.541Z,8.45
2023-03-06T02:07:06.927Z,9.02
2023-03-06T02:09:34.847Z,7.20
2023-03-06T02:12:02.654Z,11.05
2023-03-06T02:14:30.076Z,7.70
2023-03-06T02:16:57.381Z,6.60
2023-03-06T02:19:45.889Z,9.13
2023-03-06T02:22:13.168Z,9.07
2023-03-06T02:24:57.559Z,7.97
2023-03-06T02:27:24.936Z,9.13
2023-03-06T02:29:55.218Z,8.55
2023-03-06T02:32:22.509Z,7.80
2023-03-06T02:34:53.858Z,6.65
2023-03-06T02:37:21.521Z,7.95
2023-03-06T02:39:52.835Z,7.72
2023-03-06T02:42:25.097Z,6.68
2023-03-06T02:44:53.993Z,7.13
2023-03-06T02:47:21.293Z,7.43
2023-03-06T02:49:48.539Z,6.90
2023-03-06T02:52:15.788Z,6.63
2023-03-06T02:54:43.077Z,6.05
2023-03-06T02:57:10.392Z,7.10
2023-03-06T02:59:37.814Z,7.22
2023-03-06T03:02:06.208Z,9.40
2023-03-06T03:04:34.816Z,8.48
2023-03-06T03:07:03.116Z,9.45
2023-03-06T03:09:36.864Z,7.45
2023-03-06T03:12:06.121Z,7.10
2023-03-06T03:14:34.134Z,7.95
2023-03-06T03:17:02.487Z,7.35
2023-03-06T03:19:29.817Z,6.78
2023-03-06T03:21:57.081Z,6.18
2023-03-06T03:24:24.720Z,5.45
2023-03-06T03:26:52.731Z,5.93
2023-03-06T03:29:22.328Z,4.37
2023-03-06T03:31:49.684Z,6.55
2023-03-06T03:34:18.934Z,5.65
2023-03-06T03:36:46.345Z,5.53
2023-03-06T03:39:14.490Z,3.95
2023-03-06T03:41:42.710Z,3.15
2023-03-06T03:44:10.847Z,3.45
2023-03-06T03:46:38.308Z,4.10
2023-03-06T03:49:10.409Z,3.95
2023-03-06T03:51:38.336Z,4.93
2023-03-06T03:54:06.858Z,6.93
2023-03-06T03:56:40.755Z,4.50
2023-03-06T03:59:13.849Z,4.50
2023-03-06T04:01:49.514Z,3.22
2023-03-06T04:04:18.039Z,3.83
2023-03-06T04:06:46.111Z,4.55
2023-03-06T04:09:14.138Z,4.72
2023-03-06T04:11:42.029Z,5.18
2023-03-06T04:14:09.843Z,3.72
2023-03-06T04:16:37.443Z,3.25
2023-03-06T04:19:04.800Z,2.97
2023-03-06T04:21:32.233Z,5.80
2023-03-06T04:23:59.753Z,4.15
2023-03-06T04:26:27.095Z,3.03
2023-03-06T04:28:56.099Z,4.20
2023-03-06T04:31:23.456Z,2.40
2023-03-06T04:33:50.960Z,3.80
2023-03-06T04:36:36.584Z,2.03
2023-03-06T04:39:07.814Z,2.95
2023-03-06T04:41:35.570Z,3.95
2023-03-06T04:44:03.114Z,7.07
2023-03-06T04:46:30.386Z,5.70
2023-03-06T04:48:57.658Z,2.63
2023-03-06T04:51:24.984Z,3.00
2023-03-06T04:53:52.432Z,2.83
2023-03-06T04:56:19.720Z,3.65
2023-03-06T04:58:46.994Z,3.50
2023-03-06T05:01:14.248Z,6.45
2023-03-06T05:03:41.547Z,3.88
2023-03-06T05:06:08.802Z,4.32
2023-03-06T05:08:36.141Z,3.95
2023-03-06T05:11:03.453Z,2.97
2023-03-06T05:13:30.748Z,4.70
2023-03-06T05:16:02.584Z,4.75
2023-03-06T05:18:30.010Z,4.80
2023-03-06T05:21:00.118Z,5.25
2023-03-06T05:23:28.113Z,4.15
2023-03-06T05:25:55.481Z,5.03
2023-03-06T05:28:22.781Z,5.05
2023-03-06T05:30:50.127Z,3.30
2023-03-06T05:33:17.485Z,4.53
2023-03-06T05:35:48.619Z,5.88
2023-03-06T05:38:16.232Z,4.47
2023-03-06T05:40:43.988Z,6.22
2023-03-06T05:43:11.950Z,4.00
2023-03-06T05:45:39.458Z,5.97
2023-03-06T05:48:07.404Z,5.68
2023-03-06T05:50:34.725Z,5.05
2023-03-06T05:53:02.068Z,5.97
2023-03-06T05:55:29.632Z,6.93
2023-03-06T05:57:57.018Z,5.15
2023-03-06T06:00:24.751Z,4.28
2023-03-06T06:02:52.016Z,5.13
2023-03-06T06:05:19.272Z,5.55
2023-03-06T06:07:46.607Z,5.28
2023-03-06T06:10:13.922Z,4.70
2023-03-06T06:12:41.201Z,5.43
2023-03-06T06:15:08.845Z,8.90
2023-03-06T06:17:36.231Z,5.22
2023-03-06T06:20:03.637Z,5.45
2023-03-06T06:22:30.971Z,5.13
2023-03-06T06:24:58.318Z,6.25
2023-03-06T06:27:25.766Z,4.32
2023-03-06T06:29:53.128Z,9.27
2023-03-06T06:32:20.545Z,3.97
2023-03-06T06:34:48.578Z,6.03
2023-03-06T06:37:16.277Z,6.88
2023-03-06T06:39:43.662Z,5.68
2023-03-06T06:42:29.821Z,5.03
2023-03-06T06:44:58.657Z,4.65
2023-03-06T06:47:26.370Z,4.40
2023-03-06T06:49:54.220Z,5.55
2023-03-06T06:52:22.270Z,5.65
2023-03-06T06:54:49.547Z,7.78
2023-03-06T06:57:16.830Z,5.75
2023-03-06T06:59:44.185Z,6.93
2023-03-06T07:02:15.865Z,5.45
2023-03-06T07:04:56.489Z,5.43
2023-03-06T07:07:29.781Z,5.15
2023-03-06T07:09:57.166Z,7.63
2023-03-06T07:12:24.559Z,6.28
2023-03-06T07:14:51.862Z,4.63
2023-03-06T07:17:19.143Z,8.02
2023-03-06T07:19:46.719Z,3.90
2023-03-06T07:22:14.169Z,6.75
2023-03-06T07:24:41.425Z,7.35
2023-03-06T07:27:10.461Z,6.55
2023-03-06T07:29:38.958Z,6.57
2023-03-06T07:32:07.528Z,5.38
2023-03-06T07:34:37.813Z,7.65
2023-03-06T07:37:05.154Z,5.95
2023-03-06T07:39:32.432Z,6.72
2023-03-06T07:41:59.764Z,6.85
2023-03-06T07:44:27.381Z,5.30
2023-03-06T07:46:54.674Z,5.15
2023-03-06T07:49:23.970Z,6.20
2023-03-06T07:51:51.460Z,6.38
2023-03-06T07:54:18.799Z,4.18
2023-03-06T07:56:46.150Z,5.45
2023-03-06T07:59:13.461Z,5.50
2023-03-06T08:01:40.770Z,8.80
2023-03-06T08:04:08.214Z,5.75
2023-03-06T08:06:35.726Z,9.85
2023-03-06T08:09:03.232Z,8.77
2023-03-06T08:11:30.874Z,7.18
2023-03-06T08:13:58.423Z,10.63
2023-03-06T08:16:28.062Z,9.00
2023-03-06T08:18:55.782Z,5.47
2023-03-06T08:21:24.814Z,6.97
2023-03-06T08:23:53.430Z,7.60
2023-03-06T08:26:31.076Z,7.25
2023-03-06T08:28:59.291Z,7.50
2023-03-06T08:31:39.092Z,9.52
2023-03-06T08:34:11.037Z,7.22
2023-03-06T08:36:38.369Z,6.20
2023-03-06T08:39:05.937Z,6.72
2023-03-06T08:41:33.612Z,7.18
2023-03-06T08:44:01.330Z,6.45
2023-03-06T08:46:29.185Z,7.82
2023-03-06T08:48:56.704Z,7.05
2023-03-06T08:51:24.353Z,7.07
2023-03-06T08:53:52.339Z,5.88
2023-03-06T08:56:21.536Z,7.60
2023-03-06T08:58:50.623Z,6.55
2023-03-06T09:01:21.217Z,5.65
2023-03-06T09:03:48.852Z,5.25
2023-03-06T09:06:16.128Z,7.77
2023-03-06T09:08:44.569Z,4.90
2023-03-06T09:11:12.945Z,6.53
2023-03-06T09:13:40.522Z,6.72
2023-03-06T09:16:08.904Z,6.60
2023-03-06T09:18:36.444Z,5.67
2023-03-06T09:21:04.312Z,6.60
2023-03-06T09:23:31.685Z,6.25
2023-03-06T09:25:59.329Z,5.10
2023-03-06T09:28:26.656Z,6.07
2023-03-06T09:31:03.774Z,6.30
2023-03-06T09:33:31.650Z,6.45
2023-03-06T09:35:59.158Z,4.65
2023-03-06T09:38:27.890Z,4.93
2023-03-06T09:40:58.450Z,7.57
2023-03-06T09:43:31.885Z,7.73
2023-03-06T09:45:59.255Z,6.47
2023-03-06T09:48:37.475Z,7.25
2023-03-06T09:51:10.570Z,7.10
2023-03-06T09:53:44.093Z,7.43
2023-03-06T09:56:21.868Z,6.23
2023-03-06T09:58:52.332Z,5.60
2023-03-06T10:01:24.789Z,4.15
2023-03-06T10:04:24.444Z,5.57
2023-03-06T10:06:55.326Z,5.72
2023-03-06T10:09:25.402Z,4.50
2023-03-06T10:11:56.256Z,10.43
2023-03-06T10:14:38.153Z,7.68
2023-03-06T10:17:05.822Z,4.32
2023-03-06T10:19:37.864Z,5.55
2023-03-06T10:22:11.086Z,5.83
2023-03-06T10:24:53.360Z,7.05
2023-03-06T10:27:23.858Z,5.57
2023-03-06T10:30:03.402Z,5.75
2023-03-06T10:32:55.020Z,9.88
2023-03-06T10:35:24.506Z,8.75
2023-03-06T10:37:51.794Z,9.25
2023-03-06T10:40:22.601Z,8.40
2023-03-06T10:42:58.704Z,9.15
2023-03-06T10:45:51.506Z,9.15
2023-03-06T10:48:24.124Z,9.55
2023-03-06T10:50:51.758Z,9.55
2023-03-06T10:53:26.427Z,8.32
2023-03-06T10:55:58.320Z,11.77
2023-03-06T10:58:30.348Z,9.88
2023-03-06T11:01:09.605Z,11.10
2023-03-06T11:03:37.027Z,9.30
2023-03-06T11:06:10.829Z,11.07
2023-03-06T11:08:40.492Z,10.80
2023-03-06T11:11:08.859Z,13.48
2023-03-06T11:13:38.426Z,12.02
2023-03-06T11:16:16.292Z,11.75
2023-03-06T11:18:54.615Z,10.20
2023-03-06T11:21:32.715Z,12.05
2023-03-06T11:24:08.852Z,10.80
2023-03-06T11:26:37.431Z,11.82
2023-03-06T11:29:04.719Z,10.25
2023-03-06T11:31:36.579Z,9.88
2023-03-06T11:34:39.316Z,11.52
2023-03-06T11:37:15.714Z,13.20
2023-03-06T11:39:53.015Z,12.48
2023-03-06T11:42:29.206Z,11.13
2023-03-06T11:45:00.358Z,13.23
2023-03-06T11:47:39.207Z,10.73
2023-03-06T11:50:18.542Z,10.10
2023-03-06T11:52:53.227Z,8.45
2023-03-06T11:55:33.520Z,13.23
2023-03-06T11:58:31.734Z,11.88
2023-03-06T12:01:25.273Z,11.20
2023-03-06T12:03:58.149Z,10.57
2023-03-06T12:06:49.421Z,11.85
2023-03-06T12:09:41.088Z,11.60
2023-03-06T12:12:30.123Z,13.63
2023-03-06T12:15:05.455Z,15.82
2023-03-06T12:17:42.398Z,14.75
2023-03-06T12:20:16.139Z,12.68
2023-03-06T12:22:57.543Z,16.58
2023-03-06T12:25:36.669Z,11.80
2023-03-06T12:28:32.080Z,10.95
2023-03-06T12:31:32.980Z,11.98
2023-03-06T12:34:29.875Z,10.80
2023-03-06T12:37:18.734Z,10.32
2023-03-06T12:39:58.160Z,11.40
2023-03-06T12:43:02.915Z,10.48
2023-03-06T12:45:33.386Z,12.02
2023-03-06T12:48:00.820Z,10.48
2023-03-06T12:50:31.707Z,10.13
2023-03-06T12:53:03.479Z,9.70
2023-03-06T12:55:37.588Z,11.77
2023-03-06T12:58:33.390Z,11.30
2023-03-06T13:01:06.412Z,8.50
2023-03-06T13:03:39.376Z,8.48
2023-03-06T13:06:23.241Z,9.70
2023-03-06T13:09:15.074Z,9.65
2023-03-06T13:12:00.763Z,9.23
2023-03-06T13:14:34.359Z,9.65
2023-03-06T13:17:24.022Z,9.70
2023-03-06T13:20:13.303Z,9.35
2023-03-06T13:22:46.988Z,8.25
2023-03-06T13:25:22.622Z,9.93
2023-03-06T13:27:55.756Z,10.02
2023-03-06T13:30:46.384Z,10.02
2023-03-06T13:33:33.238Z,11.25
2023-03-06T13:36:29.583Z,9.73
2023-03-06T13:38:59.218Z,9.60
2023-03-06T13:41:33.797Z,8.98
2023-03-06T13:44:15.680Z,11.65
2023-03-06T13:46:43.155Z,10.00
2023-03-06T13:49:13.301Z,11.52
2023-03-06T13:51:53.179Z,9.80
2023-03-06T13:54:32.317Z,10.30
2023-03-06T13:57:33.431Z,10.10
2023-03-06T14:00:11.763Z,11.88
2023-03-06T14:02:56.122Z,10.68
2023-03-06T14:05:23.797Z,9.80
2023-03-06T14:08:13.914Z,9.88
2023-03-06T14:10:46.027Z,11.35
2023-03-06T14:13:14.474Z,14.10
2023-03-06T14:15:43.103Z,11.68
2023-03-06T14:18:13.326Z,9.48
2023-03-06T14:20:42.865Z,10.52
2023-03-06T14:23:30.425Z,11.35
2023-03-06T14:26:23.043Z,9.60
2023-03-06T14:28:53.422Z,11.18
2023-03-06T14:31:32.481Z,12.02
2023-03-06T14:34:05.022Z,9.93
2023-03-06T14:36:51.783Z,11.60
2023-03-06T14:39:25.067Z,14.55
2023-03-06T14:41:52.469Z,12.52
2023-03-06T14:44:20.052Z,13.50
2023-03-06T14:46:57.464Z,12.95
2023-03-06T14:49:25.672Z,13.75
2023-03-06T14:51:56.871Z,11.60
2023-03-06T14:54:32.154Z,12.02
2023-03-06T14:57:20.075Z,13.65
2023-03-06T14:59:50.487Z,12.95
2023-03-06T15:02:20.457Z,13.25
2023-03-06T15:04:55.294Z,12.02
2023-03-06T15:07:25.274Z,14.98
2023-03-06T15:09:53.784Z,12.68
2023-03-06T15:12:21.284Z,13.48
2023-03-06T15:15:08.013Z,12.32
2023-03-06T15:17:38.991Z,13.77
2023-03-06T15:20:08.471Z,14.50
2023-03-06T15:22:42.154Z,16.33
2023-03-06T15:25:31.279Z,11.75
2023-03-06T15:28:23.926Z,13.73
2023-03-06T15:31:22.218Z,14.38
2023-03-06T15:34:09.257Z,13.27
2023-03-06T15:36:47.532Z,16.05
2023-03-06T15:39:32.378Z,17.15
2023-03-06T15:42:05.129Z,16.75
2023-03-06T15:44:33.363Z,15.57
2023-03-06T15:47:08.658Z,14.40
2023-03-06T15:49:37.702Z,15.38
2023-03-06T15:52:08.002Z,15.48
2023-03-06T15:54:35.755Z,18.67
2023-03-06T15:57:06.812Z,14.75
2023-03-06T15:59:39.234Z,17.73
2023-03-06T16:02:15.941Z,18.80
2023-03-06T16:04:43.674Z,16.60
2023-03-06T16:07:11.398Z,16.98
2023-03-06T16:09:38.684Z,18.77
2023-03-06T16:12:06.621Z,16.52
2023-03-06T16:14:33.881Z,19.13
2023-03-06T16:17:01.270Z,17.15
2023-03-06T16:19:28.618Z,15.40
2023-03-06T16:21:56.643Z,18.02
2023-03-06T16:24:26.223Z,17.75
2023-03-06T16:26:53.796Z,22.30
2023-03-06T16:29:23.095Z,20.15
2023-03-06T16:31:50.526Z,24.40
2023-03-06T16:37:00.888Z,17.27
2023-03-06T16:39:28.252Z,14.82
2023-03-06T16:41:55.632Z,17.08
2023-03-06T16:44:22.994Z,16.27
2023-03-06T16:46:50.409Z,16.85
2023-03-06T16:49:24.456Z,18.23
2023-03-06T16:51:52.032Z,18.80
2023-03-06T16:54:19.733Z,18.33
2023-03-06T16:56:47.010Z,18.10
2023-03-06T16:59:14.382Z,18.60
2023-03-06T17:01:43.153Z,22.05
2023-03-06T17:04:10.968Z,26.58
2023-03-06T17:06:38.548Z,19.45
2023-03-06T17:09:06.027Z,20.73
2023-03-06T17:11:33.376Z,32.78
2023-03-06T17:14:01.512Z,30.17
2023-03-06T17:16:28.810Z,34.50
2023-03-06T17:18:58.174Z,39.15
2023-03-06T17:21:27.054Z,43.92
2023-03-06T17:23:57.046Z,36.50
2023-03-06T17:26:24.352Z,33.72
2023-03-06T17:28:51.668Z,35.00
2023-03-06T17:31:23.323Z,31.25
2023-03-06T17:33:51.561Z,35.58
2023-03-06T17:36:19.481Z,34.80
2023-03-06T17:38:47.084Z,30.02
2023-03-06T17:41:14.381Z,34.15
2023-03-06T17:43:41.701Z,22.67
2023-03-06T17:46:10.811Z,22.05
2023-03-06T17:48:38.170Z,20.70
2023-03-06T17:51:05.906Z,18.55
2023-03-06T17:53:33.213Z,17.27
2023-03-06T17:56:02.235Z,13.90
2023-03-06T17:58:29.508Z,14.30
2023-03-06T18:00:56.757Z,15.25
2023-03-06T18:03:23.986Z,15.55
2023-03-06T18:06:01.164Z,16.98
2023-03-06T18:08:28.500Z,18.98
2023-03-06T18:11:04.179Z,16.92
2023-03-06T18:13:35.686Z,16.52
2023-03-06T18:16:03.785Z,17.80
2023-03-06T18:18:31.182Z,20.58
2023-03-06T18:20:58.551Z,19.55
2023-03-06T18:23:26.726Z,19.25
2023-03-06T18:26:04.929Z,18.30
2023-03-06T18:28:32.170Z,18.73
2023-03-06T18:30:59.495Z,18.05
2023-03-06T18:33:26.752Z,18.35
2023-03-06T18:35:56.287Z,20.60
2023-03-06T18:38:23.718Z,23.45
2023-03-06T18:40:51.003Z,21.08
2023-03-06T18:43:18.362Z,22.73
2023-03-06T18:45:56.225Z,22.70
2023-03-06T18:48:23.745Z,24.02
2023-03-06T18:50:51.120Z,22.88
2023-03-06T18:53:18.658Z,21.67
2023-03-06T18:55:49.736Z,21.20
2023-03-06T18:58:18.131Z,24.38
2023-03-06T19:00:45.604Z,23.40
2023-03-06T19:03:12.925Z,27.25
2023-03-06T19:05:44.594Z,23.55
2023-03-06T19:08:12.100Z,24.08
2023-03-06T19:10:41.042Z,23.70
2023-03-06T19:13:08.634Z,22.70
2023-03-06T19:15:48.380Z,21.48
2023-03-06T19:18:17.462Z,22.52
2023-03-06T19:20:44.972Z,22.83
2023-03-06T19:23:12.409Z,20.17
2023-03-06T19:25:39.725Z,21.65
2023-03-06T19:28:07.000Z,23.17
2023-03-06T19:30:34.323Z,22.48
2023-03-06T19:33:01.666Z,20.33
2023-03-06T19:35:29.261Z,20.17
2023-03-06T19:37:56.712Z,19.10
2023-03-06T19:40:23.953Z,22.23
2023-03-06T19:42:51.301Z,21.40
2023-03-06T19:45:18.983Z,22.60
2023-03-06T19:47:46.307Z,20.42
2023-03-06T19:50:13.615Z,23.30
2023-03-06T19:52:40.915Z,21.40
2023-03-06T19:55:09.724Z,20.58
2023-03-06T19:57:37.142Z,20.40
2023-03-06T20:00:05.098Z,21.33
2023-03-06T20:02:39.968Z,16.58
2023-03-06T20:05:09.314Z,20.58
2023-03-06T20:07:36.756Z,19.42
2023-03-06T20:10:05.384Z,19.50
2023-03-06T20:12:33.335Z,22.65
2023-03-06T20:15:00.593Z,21.45
2023-03-06T20:17:27.905Z,20.38
2023-03-06T20:19:55.532Z,19.27
2023-03-06T20:22:22.839Z,22.20
2023-03-06T20:24:50.132Z,19.77
2023-03-06T20:27:17.442Z,22.30
2023-03-06T20:29:44.798Z,20.88
2023-03-06T20:32:12.723Z,22.13
2023-03-06T20:34:40.177Z,22.43
2023-03-06T20:37:08.312Z,20.30
2023-03-06T20:39:35.701Z,21.80
2023-03-06T20:42:04.063Z,22.60
2023-03-06T20:44:31.350Z,21.90
2023-03-06T20:46:58.681Z,22.17
2023-03-06T20:49:27.325Z,22.20
2023-03-06T20:51:56.067Z,21.23
2023-03-06T20:54:23.362Z,25.10
2023-03-06T20:56:50.659Z,24.58
2023-03-06T20:59:18.014Z,24.63
2023-03-06T21:01:46.988Z,25.00
2023-03-06T21:04:14.767Z,24.40
2023-03-06T21:06:45.368Z,25.20
2023-03-06T21:09:15.906Z,25.42
2023-03-06T21:11:43.405Z,25.63
2023-03-06T21:14:12.339Z,28.90
2023-03-06T21:16:39.693Z,26.05
2023-03-06T21:19:09.358Z,27.35
2023-03-06T21:21:36.949Z,26.60
2023-03-06T21:24:04.407Z,25.30
2023-03-06T21:26:33.896Z,28.67
2023-03-06T21:29:01.638Z,25.65
2023-03-06T21:31:29.090Z,27.35
2023-03-06T21:33:56.706Z,24.48
2023-03-06T21:36:24.803Z,27.37
2023-03-06T21:38:52.456Z,26.80
2023-03-06T21:41:25.994Z,24.83
2023-03-06T21:43:57.063Z,25.80
2023-03-06T21:46:24.702Z,25.65
2023-03-06T21:48:52.033Z,26.23
2023-03-06T21:51:20.013Z,22.80
2023-03-06T21:53:47.799Z,26.52
2023-03-06T21:56:16.287Z,26.58
2023-03-06T21:58:43.824Z,34.05
2023-03-06T22:01:17.693Z,26.83
2023-03-06T22:03:45.233Z,24.33
2023-03-06T22:06:17.250Z,24.58
2023-03-06T22:08:44.596Z,23.40
2023-03-06T22:11:13.643Z,24.27
2023-03-06T22:13:41.176Z,26.83
2023-03-06T22:16:08.698Z,24.23
2023-03-06T22:18:36.061Z,26.52
2023-03-06T22:21:10.564Z,21.70
2023-03-06T22:23:38.147Z,23.70
2023-03-06T22:26:06.328Z,23.23
2023-03-06T22:28:33.698Z,24.48
2023-03-06T22:31:15.086Z,25.75
2023-03-06T22:33:42.522Z,24.05
2023-03-06T22:36:11.650Z,26.25
2023-03-06T22:38:40.253Z,24.00
2023-03-06T22:41:07.866Z,27.45
2023-03-06T22:43:35.161Z,26.55
2023-03-06T22:46:07.428Z,33.30
2023-03-06T22:48:34.723Z,31.70
2023-03-06T22:51:09.426Z,29.83
2023-03-06T22:53:36.907Z,24.60
2023-03-06T22:56:08.007Z,24.38
2023-03-06T22:58:37.184Z,27.35
2023-03-06T23:01:15.385Z,26.10
2023-03-06T23:03:44.301Z,30.30
2023-03-06T23:06:15.189Z,35.45
2023-03-06T23:08:42.493Z,42.08
2023-03-06T23:11:11.232Z,44.67
2023-03-06T23:13:57.336Z,45.20
2023-03-06T23:16:43.316Z,47.57
2023-03-06T23:19:29.167Z,51.40
2023-03-06T23:22:15.071Z,53.55
2023-03-06T23:25:00.798Z,48.03
2023-03-06T23:27:29.504Z,52.42
2023-03-06T23:29:58.990Z,50.80
2023-03-06T23:32:26.427Z,58.70
2023-03-06T23:34:53.785Z,59.63
2023-03-06T23:37:21.126Z,50.63
2023-03-06T23:39:48.507Z,49.55
2023-03-06T23:42:15.806Z,44.03
2023-03-06T23:44:43.233Z,41.17
2023-03-06T23:47:10.515Z,43.85
2023-03-06T23:49:37.859Z,46.58
2023-03-06T23:52:05.299Z,40.67
2023-03-06T23:54:34.401Z,48.17
2023-03-06T23:57:01.734Z,46.08
2023-03-06T23:59:29.049Z,48.97
